Strona główna
METAR-TAF:

METAR-TAF

Lotnisko :

Nörvenich, Niemcy

Szerokość geograficzna: 50-50N, Długość geograficzna: 006-40E, wysokość: 118 m

Aktualna obserwacja pogody

Raport powstał 24 minut temu, godzina 18:20 UTC
Wiatr 4 kt od północny wschód
Temperatura 21°C
Wilgotność 53%
Ciśnienie 1014 hPa
Widzialność 10 km lub więcej
Mało chmury na wysokości 16000 ft
Przerywane chmury na wysokości 35000 ft

METAR: ETNN 171820Z 05004KT 9999 FEW160 BKN350 21/11 Q1014 BLU+

czas: 20:44 (18:44 UTC)

Prognoza

Raport powstał 4 godziny i 7 minut temu, godzina 14:37 UTC
Prognoza ważna od 17 godzina 14 UTC do 17 godzina 23 UTC
Wiatr 5 kt od północno-północny zachód
Widzialność: 1500 m
Rozproszone chmury na wysokości 3000 ft

TAF: ETNN 171437Z 1714/1723 33005KT 9999 NSW SCT030 CANCEL 1500 BY ETGL

Obserwacja i prognoza pogody dla ponad 4000 lotnisk (raport METAR i TAF).

Dostępne stacje oznaczono żółtymi i czerwonymi punktami na mapie.

Najedź kursorem aby zobaczyć nazwę stacji.

Kliknij aby zobaczyć obserwacje i prognozy pogody.

Aby zmienić mapę: kliknij na zielony przycisk z czarnym krzyżykiem, aby powiększyć; na zielony przycisk z myślnikiem, aby pomniejszyć; na zielone strzałki, aby przejść do map sąsiednich.


METAR-TAF: